createdAt,value
2023-04-11T00:01:51.322Z,3.00
2023-04-11T00:04:21.236Z,2.53
2023-04-11T00:06:49.850Z,3.17
2023-04-11T00:09:18.306Z,2.07
2023-04-11T00:11:46.654Z,2.33
2023-04-11T00:14:15.340Z,2.63
2023-04-11T00:16:43.737Z,2.33
2023-04-11T00:19:12.247Z,1.80
2023-04-11T00:21:44.150Z,2.40
2023-04-11T00:24:12.492Z,2.80
2023-04-11T00:26:40.947Z,2.23
2023-04-11T00:29:09.197Z,2.67
2023-04-11T00:31:37.650Z,2.40
2023-04-11T00:34:06.030Z,2.53
2023-04-11T00:36:34.433Z,2.27
2023-04-11T00:39:04.219Z,2.20
2023-04-11T00:41:32.627Z,2.27
2023-04-11T00:44:01.173Z,2.03
2023-04-11T00:46:29.614Z,2.03
2023-04-11T00:48:58.372Z,2.73
2023-04-11T00:51:27.416Z,2.13
2023-04-11T00:53:55.878Z,2.17
2023-04-11T00:56:25.687Z,2.50
2023-04-11T00:58:54.231Z,2.50
2023-04-11T01:01:25.091Z,2.47
2023-04-11T01:03:53.921Z,2.63
2023-04-11T01:06:23.445Z,2.47
2023-04-11T01:08:52.006Z,2.57
2023-04-11T01:11:20.942Z,2.40
2023-04-11T01:13:51.625Z,2.27
2023-04-11T01:16:21.719Z,2.37
2023-04-11T01:18:50.675Z,2.60
2023-04-11T01:21:20.448Z,2.03
2023-04-11T01:23:52.689Z,2.90
2023-04-11T01:26:21.165Z,2.40
2023-04-11T01:28:49.530Z,2.47
2023-04-11T01:31:17.942Z,2.07
2023-04-11T01:33:46.287Z,2.40
2023-04-11T01:36:14.782Z,2.30
2023-04-11T01:38:43.097Z,2.13
2023-04-11T01:41:13.167Z,2.00
2023-04-11T01:43:41.630Z,2.00
2023-04-11T01:46:11.197Z,2.67
2023-04-11T01:48:39.710Z,2.30
2023-04-11T01:51:08.483Z,1.90
2023-04-11T01:53:36.740Z,2.10
2023-04-11T01:56:05.284Z,1.30
2023-04-11T01:58:35.028Z,1.50
2023-04-11T02:01:03.365Z,1.73
2023-04-11T02:03:31.937Z,1.70
2023-04-11T02:06:00.420Z,1.50
2023-04-11T02:08:28.883Z,1.73
2023-04-11T02:10:57.292Z,1.60
2023-04-11T02:13:25.585Z,1.60
2023-04-11T02:15:55.414Z,1.63
2023-04-11T02:18:23.761Z,2.03
2023-04-11T02:20:53.248Z,1.63
2023-04-11T02:23:23.037Z,1.80
2023-04-11T02:25:52.368Z,1.70
2023-04-11T02:28:21.133Z,1.80
2023-04-11T02:30:49.725Z,1.63
2023-04-11T02:33:19.573Z,1.63
2023-04-11T02:35:48.414Z,1.63
2023-04-11T02:38:16.715Z,1.70
2023-04-11T02:40:45.013Z,2.03
2023-04-11T02:43:13.318Z,2.10
2023-04-11T02:45:41.962Z,2.07
2023-04-11T02:48:10.332Z,1.37
2023-04-11T02:50:41.001Z,1.80
2023-04-11T02:53:09.659Z,1.53
2023-04-11T02:55:37.964Z,1.50
2023-04-11T02:58:06.250Z,1.47
2023-04-11T03:00:34.576Z,1.60
2023-04-11T03:03:03.232Z,1.80
2023-04-11T03:05:31.705Z,2.10
2023-04-11T03:08:01.480Z,1.70
2023-04-11T03:10:29.992Z,1.73
2023-04-11T03:12:58.260Z,1.80
2023-04-11T03:15:27.928Z,1.20
2023-04-11T03:17:56.292Z,1.30
2023-04-11T03:20:24.632Z,2.00
2023-04-11T03:22:52.865Z,1.83
2023-04-11T03:25:22.607Z,1.70
2023-04-11T03:27:50.952Z,1.60
2023-04-11T03:30:19.231Z,1.50
2023-04-11T03:32:47.629Z,1.40
2023-04-11T03:35:17.079Z,2.13
2023-04-11T03:37:45.422Z,1.63
2023-04-11T03:40:13.938Z,1.90
2023-04-11T03:42:43.549Z,1.70
2023-04-11T03:45:11.900Z,1.47
2023-04-11T03:47:41.395Z,1.70
2023-04-11T03:50:10.065Z,1.70
2023-04-11T03:52:38.480Z,1.80
2023-04-11T03:55:07.235Z,1.33
2023-04-11T03:57:36.237Z,1.30
2023-04-11T04:00:07.485Z,1.33
2023-04-11T04:02:36.311Z,1.90
2023-04-11T04:05:04.928Z,1.50
2023-04-11T04:07:33.386Z,1.60
2023-04-11T04:10:01.688Z,1.20
2023-04-11T04:12:29.921Z,1.40
2023-04-11T04:14:58.178Z,1.40
2023-04-11T04:17:28.050Z,1.60
2023-04-11T04:19:56.318Z,1.80
2023-04-11T04:22:26.616Z,1.67
2023-04-11T04:24:58.051Z,1.60
2023-04-11T04:27:26.507Z,1.40
2023-04-11T04:30:01.848Z,1.40
2023-04-11T04:32:34.606Z,2.90
2023-04-11T04:35:02.993Z,1.50
2023-04-11T04:37:31.413Z,1.80
2023-04-11T04:40:07.824Z,1.27
2023-04-11T04:42:36.690Z,1.43
2023-04-11T04:45:05.090Z,1.53
2023-04-11T04:47:35.248Z,1.63
2023-04-11T04:50:03.661Z,1.33
2023-04-11T04:52:32.024Z,1.83
2023-04-11T04:55:01.338Z,1.63
2023-04-11T04:57:31.922Z,1.23
2023-04-11T05:00:00.826Z,1.53
2023-04-11T05:02:29.353Z,1.67
2023-04-11T05:05:04.130Z,1.40
2023-04-11T05:07:32.631Z,1.57
2023-04-11T05:10:01.018Z,1.10
2023-04-11T05:12:29.389Z,1.37
2023-04-11T05:14:57.861Z,1.60
2023-04-11T05:17:27.853Z,1.70
2023-04-11T05:19:56.218Z,1.70
2023-04-11T05:22:25.923Z,1.60
2023-04-11T05:24:54.252Z,1.60
2023-04-11T05:27:22.583Z,1.80
2023-04-11T05:29:51.286Z,1.80
2023-04-11T05:32:19.664Z,1.50
2023-04-11T05:34:57.308Z,1.60
2023-04-11T05:37:31.248Z,1.50
2023-04-11T05:40:00.199Z,1.60
2023-04-11T05:42:28.748Z,1.60
2023-04-11T05:44:57.106Z,1.80
2023-04-11T05:47:25.587Z,1.20
2023-04-11T05:49:53.869Z,1.97
2023-04-11T05:52:22.153Z,1.87
2023-04-11T05:54:51.790Z,1.83
2023-04-11T05:57:20.215Z,1.63
2023-04-11T05:59:49.883Z,1.97
2023-04-11T06:02:18.423Z,1.90
2023-04-11T06:04:47.095Z,1.47
2023-04-11T06:07:15.508Z,2.03
2023-04-11T06:09:44.217Z,1.20
2023-04-11T06:12:13.912Z,1.53
2023-04-11T06:14:42.242Z,1.63
2023-04-11T06:17:10.603Z,1.30
2023-04-11T06:19:39.335Z,2.00
2023-04-11T06:22:07.594Z,1.40
2023-04-11T06:24:37.120Z,1.67
2023-04-11T06:27:05.806Z,1.20
2023-04-11T06:29:35.431Z,1.40
2023-04-11T06:32:03.817Z,1.60
2023-04-11T06:34:32.101Z,1.10
2023-04-11T06:37:00.497Z,1.20
2023-04-11T06:39:28.789Z,1.17
2023-04-11T06:41:57.135Z,1.00
2023-04-11T06:44:25.782Z,1.47
2023-04-11T06:46:55.833Z,1.23
2023-04-11T06:49:24.598Z,1.23
2023-04-11T06:51:54.237Z,1.10
2023-04-11T06:54:22.772Z,1.17
2023-04-11T06:56:51.604Z,1.50
2023-04-11T06:59:20.555Z,1.70
2023-04-11T07:01:49.348Z,1.37
2023-04-11T07:04:19.205Z,1.80
2023-04-11T07:06:48.011Z,1.37
2023-04-11T07:09:16.480Z,1.27
2023-04-11T07:11:46.265Z,1.20
2023-04-11T07:14:14.560Z,1.60
2023-04-11T07:16:43.037Z,1.40
2023-04-11T07:19:11.378Z,1.30
2023-04-11T07:21:41.198Z,1.47
2023-04-11T07:24:10.633Z,1.60
2023-04-11T07:26:42.100Z,1.43
2023-04-11T07:29:13.128Z,1.70
2023-04-11T07:31:44.975Z,1.70
2023-04-11T07:34:13.403Z,1.60
2023-04-11T07:36:43.099Z,2.00
2023-04-11T07:39:14.207Z,1.70
2023-04-11T07:41:42.522Z,1.83
2023-04-11T07:44:10.841Z,2.03
2023-04-11T07:46:39.118Z,1.40
2023-04-11T07:49:07.511Z,1.50
2023-04-11T07:51:36.030Z,1.20
2023-04-11T07:54:05.797Z,1.47
2023-04-11T07:56:34.052Z,1.30
2023-04-11T07:59:02.376Z,1.40
2023-04-11T08:01:31.108Z,1.03
2023-04-11T08:03:59.737Z,1.10
2023-04-11T08:06:29.096Z,1.00
2023-04-11T08:08:58.574Z,1.20
2023-04-11T08:11:28.202Z,1.07
2023-04-11T08:13:56.738Z,0.90
2023-04-11T08:16:25.458Z,0.97
2023-04-11T08:18:53.855Z,1.00
2023-04-11T08:21:25.094Z,0.80
2023-04-11T08:23:53.349Z,0.90
2023-04-11T08:26:21.653Z,0.70
2023-04-11T08:28:51.465Z,0.80
2023-04-11T08:31:19.937Z,0.80
2023-04-11T08:33:48.183Z,0.70
2023-04-11T08:36:16.642Z,0.63
2023-04-11T08:38:45.053Z,0.80
2023-04-11T08:41:14.462Z,0.73
2023-04-11T08:43:44.284Z,0.77
2023-04-11T08:46:13.952Z,0.70
2023-04-11T08:48:42.332Z,0.83
2023-04-11T08:51:12.468Z,0.97
2023-04-11T08:53:40.836Z,0.70
2023-04-11T08:56:15.656Z,1.07
2023-04-11T08:58:44.032Z,0.70
2023-04-11T09:01:32.020Z,1.00
2023-04-11T09:04:01.438Z,0.60
2023-04-11T09:06:30.965Z,0.70
2023-04-11T09:08:59.933Z,1.07
2023-04-11T09:11:28.533Z,1.30
2023-04-11T09:14:09.376Z,0.73
2023-04-11T09:16:39.204Z,0.70
2023-04-11T09:19:24.527Z,0.87
2023-04-11T09:21:52.863Z,0.77
2023-04-11T09:24:22.305Z,0.87
2023-04-11T09:26:50.820Z,0.73
2023-04-11T09:29:37.195Z,0.70
2023-04-11T09:32:07.255Z,0.93
2023-04-11T09:34:38.024Z,1.00
2023-04-11T09:37:06.734Z,0.80
2023-04-11T09:39:35.124Z,0.80
2023-04-11T09:42:04.112Z,0.77
2023-04-11T09:44:39.727Z,0.60
2023-04-11T09:47:09.703Z,0.80
2023-04-11T09:49:38.358Z,0.77
2023-04-11T09:52:07.148Z,0.87
2023-04-11T09:54:35.545Z,0.83
2023-04-11T09:57:04.874Z,0.60
2023-04-11T09:59:34.148Z,0.83
2023-04-11T10:02:02.479Z,0.80
2023-04-11T10:04:32.394Z,0.73
2023-04-11T10:07:05.285Z,0.90
2023-04-11T10:09:34.495Z,0.87
2023-04-11T10:12:03.031Z,0.80
2023-04-11T10:14:44.418Z,0.77
2023-04-11T10:17:14.081Z,0.93
2023-04-11T10:19:44.804Z,1.00
2023-04-11T10:22:13.438Z,1.20
2023-04-11T10:24:41.845Z,1.00
2023-04-11T10:27:10.170Z,0.90
2023-04-11T10:29:49.929Z,1.20
2023-04-11T10:32:20.698Z,0.90
2023-04-11T10:35:07.586Z,1.10
2023-04-11T10:37:37.567Z,0.80
2023-04-11T10:40:10.175Z,0.60
2023-04-11T10:42:39.672Z,0.70
2023-04-11T10:45:32.385Z,0.80
2023-04-11T10:48:10.383Z,0.80
2023-04-11T10:50:40.862Z,0.90
2023-04-11T10:53:14.337Z,1.10
2023-04-11T10:55:47.268Z,0.83
2023-04-11T10:58:19.467Z,0.83
2023-04-11T11:01:25.686Z,0.90
2023-04-11T11:04:01.516Z,1.20
2023-04-11T11:06:31.091Z,0.63
2023-04-11T11:09:00.766Z,1.00
2023-04-11T11:11:29.154Z,0.83
2023-04-11T11:13:57.759Z,1.10
2023-04-11T11:16:27.157Z,1.00
2023-04-11T11:18:56.287Z,0.80
2023-04-11T11:21:28.858Z,1.13
2023-04-11T11:23:58.598Z,1.00
2023-04-11T11:26:42.149Z,0.93
2023-04-11T11:29:10.867Z,0.90
2023-04-11T11:31:41.708Z,0.90
2023-04-11T11:36:42.783Z,1.00
2023-04-11T11:39:11.384Z,0.90
2023-04-11T11:41:42.291Z,1.20
2023-04-11T11:44:22.546Z,1.10
2023-04-11T11:47:02.223Z,1.20
2023-04-11T11:49:44.720Z,1.10
2023-04-11T11:52:13.096Z,1.33
2023-04-11T11:54:45.554Z,1.20
2023-04-11T11:57:22.623Z,1.90
2023-04-11T11:59:54.957Z,2.50
2023-04-11T12:02:23.860Z,1.30
2023-04-11T12:04:52.513Z,1.20
2023-04-11T12:07:23.291Z,1.13
2023-04-11T12:09:51.968Z,1.00
2023-04-11T12:12:21.763Z,1.20
2023-04-11T12:14:55.986Z,1.20
2023-04-11T12:17:24.422Z,1.03
2023-04-11T12:19:56.945Z,0.97
2023-04-11T12:22:25.640Z,1.53
2023-04-11T12:24:54.037Z,1.00
2023-04-11T12:27:23.941Z,1.33
2023-04-11T12:29:52.198Z,1.33
2023-04-11T12:32:20.712Z,1.90
2023-04-11T12:34:49.012Z,1.37
2023-04-11T12:37:17.442Z,1.33
2023-04-11T12:39:45.876Z,1.10
2023-04-11T12:42:16.719Z,1.03
2023-04-11T12:44:48.715Z,1.20
2023-04-11T12:47:17.000Z,1.90
2023-04-11T12:49:45.672Z,1.30
2023-04-11T12:52:13.986Z,1.00
2023-04-11T12:54:42.291Z,1.57
2023-04-11T12:57:12.414Z,1.37
2023-04-11T12:59:40.883Z,1.50
2023-04-11T13:02:10.693Z,1.50
2023-04-11T13:04:39.117Z,1.20
2023-04-11T13:07:07.655Z,1.50
2023-04-11T13:09:36.335Z,1.23
2023-04-11T13:12:04.711Z,1.10
2023-04-11T13:14:33.008Z,1.17
2023-04-11T13:17:01.635Z,1.37
2023-04-11T13:19:31.624Z,1.17
2023-04-11T13:22:00.034Z,1.10
2023-04-11T13:24:28.502Z,1.17
2023-04-11T13:26:57.045Z,1.50
2023-04-11T13:29:25.416Z,1.17
2023-04-11T13:31:53.749Z,1.10
2023-04-11T13:34:22.144Z,1.17
2023-04-11T13:36:52.731Z,1.70
2023-04-11T13:39:21.051Z,1.30
2023-04-11T13:41:49.371Z,0.93
2023-04-11T13:44:17.721Z,1.27
2023-04-11T13:46:46.020Z,1.10
2023-04-11T13:49:14.249Z,1.23
2023-04-11T13:51:42.526Z,1.40
2023-04-11T13:54:12.248Z,1.20
2023-04-11T13:56:40.545Z,1.60
2023-04-11T13:59:08.953Z,1.23
2023-04-11T14:01:37.885Z,1.10
2023-04-11T14:04:06.918Z,1.40
2023-04-11T14:06:37.472Z,1.20
2023-04-11T14:09:06.471Z,1.20
2023-04-11T14:11:36.108Z,1.07
2023-04-11T14:14:04.353Z,1.17
2023-04-11T14:16:32.648Z,1.07
2023-04-11T14:19:00.941Z,1.23
2023-04-11T14:21:29.209Z,1.23
2023-04-11T14:23:57.747Z,1.70
2023-04-11T14:26:26.222Z,1.00
2023-04-11T14:28:55.994Z,1.27
2023-04-11T14:31:24.392Z,0.93
2023-04-11T14:33:53.796Z,1.20
2023-04-11T14:36:22.218Z,1.40
2023-04-11T14:38:50.752Z,1.20
2023-04-11T14:41:19.318Z,1.20
2023-04-11T14:43:47.651Z,1.73
2023-04-11T14:46:17.419Z,1.13
2023-04-11T14:48:45.725Z,1.27
2023-04-11T14:51:14.063Z,1.60
2023-04-11T14:53:42.945Z,1.20
2023-04-11T14:56:11.499Z,1.47
2023-04-11T14:58:39.953Z,1.10
2023-04-11T15:01:08.695Z,1.23
2023-04-11T15:03:38.857Z,1.60
2023-04-11T15:06:07.784Z,1.63
2023-04-11T15:08:36.340Z,1.50
2023-04-11T15:11:04.676Z,1.50
2023-04-11T15:13:33.046Z,1.17
2023-04-11T15:16:01.488Z,1.00
2023-04-11T15:18:30.560Z,1.47
2023-04-11T15:21:02.054Z,1.33
2023-04-11T15:23:30.487Z,1.20
2023-04-11T15:25:59.703Z,1.30
2023-04-11T15:28:28.685Z,1.60
2023-04-11T15:30:57.361Z,1.00
2023-04-11T15:33:25.961Z,1.23
2023-04-11T15:35:54.650Z,1.17
2023-04-11T15:38:24.445Z,1.40
2023-04-11T15:40:53.258Z,1.20
2023-04-11T15:43:21.833Z,1.33
2023-04-11T15:45:50.156Z,1.63
2023-04-11T15:48:18.597Z,1.20
2023-04-11T15:50:47.144Z,0.87
2023-04-11T15:53:15.630Z,1.23
2023-04-11T15:55:47.035Z,1.77
2023-04-11T15:58:15.361Z,1.00
2023-04-11T16:00:46.984Z,1.27
2023-04-11T16:03:16.679Z,1.10
2023-04-11T16:05:45.679Z,1.20
2023-04-11T16:08:14.224Z,1.10
2023-04-11T16:10:42.860Z,1.07
2023-04-11T16:13:12.470Z,1.30
2023-04-11T16:15:40.722Z,0.90
2023-04-11T16:18:09.064Z,1.00
2023-04-11T16:20:37.535Z,1.10
2023-04-11T16:23:05.938Z,1.33
2023-04-11T16:25:34.391Z,1.20
2023-04-11T16:28:03.429Z,1.13
2023-04-11T16:30:33.175Z,0.90
2023-04-11T16:33:01.698Z,1.20
2023-04-11T16:35:30.045Z,1.43
2023-04-11T16:37:58.338Z,1.30
2023-04-11T16:40:26.729Z,1.40
2023-04-11T16:42:55.008Z,1.50
2023-04-11T16:45:23.287Z,1.40
2023-04-11T16:47:53.008Z,1.40
2023-04-11T16:50:21.353Z,1.30
2023-04-11T16:52:49.723Z,1.37
2023-04-11T16:55:18.097Z,1.27
2023-04-11T16:57:46.344Z,1.20
2023-04-11T17:00:17.093Z,1.00
2023-04-11T17:02:45.500Z,1.40
2023-04-11T17:05:15.465Z,1.40
2023-04-11T17:07:43.751Z,0.90
2023-04-11T17:10:12.430Z,1.30
2023-04-11T17:12:40.864Z,1.07
2023-04-11T17:15:09.539Z,1.40
2023-04-11T17:17:38.121Z,1.27
2023-04-11T17:20:09.474Z,1.10
2023-04-11T17:22:41.451Z,1.00
2023-04-11T17:25:10.429Z,1.33
2023-04-11T17:27:38.945Z,1.60
2023-04-11T17:30:08.178Z,1.10
2023-04-11T17:32:38.039Z,1.23
2023-04-11T17:35:07.249Z,1.43
2023-04-11T17:37:35.981Z,1.17
2023-04-11T17:40:11.692Z,1.30
2023-04-11T17:42:40.159Z,1.20
2023-04-11T17:45:16.531Z,1.30
2023-04-11T17:47:46.584Z,1.27
2023-04-11T17:50:15.292Z,1.90
2023-04-11T17:52:44.205Z,1.30
2023-04-11T17:55:14.552Z,1.30
2023-04-11T17:57:43.048Z,1.27
2023-04-11T18:00:18.559Z,1.23
2023-04-11T18:02:48.115Z,1.57
2023-04-11T18:05:23.728Z,1.23
2023-04-11T18:07:54.188Z,1.27
2023-04-11T18:10:23.996Z,1.33
2023-04-11T18:12:53.113Z,1.60
2023-04-11T18:15:22.036Z,1.33
2023-04-11T18:17:50.485Z,1.80
2023-04-11T18:20:18.966Z,1.70
2023-04-11T18:22:47.982Z,1.70
2023-04-11T18:25:16.266Z,1.60
2023-04-11T18:27:47.096Z,1.70
2023-04-11T18:30:16.293Z,2.17
2023-04-11T18:32:49.784Z,1.27
2023-04-11T18:35:19.104Z,1.40
2023-04-11T18:37:47.501Z,1.57
2023-04-11T18:40:16.140Z,1.40
2023-04-11T18:42:47.802Z,1.60
2023-04-11T18:45:18.098Z,1.60
2023-04-11T18:47:46.789Z,1.37
2023-04-11T18:50:15.595Z,1.70
2023-04-11T18:52:45.654Z,1.30
2023-04-11T18:55:14.720Z,1.30
2023-04-11T18:57:46.383Z,1.73
2023-04-11T19:00:19.492Z,1.47
2023-04-11T19:02:50.436Z,2.03
2023-04-11T19:05:19.374Z,1.93
2023-04-11T19:07:47.957Z,1.40
2023-04-11T19:10:16.558Z,1.33
2023-04-11T19:12:44.926Z,1.40
2023-04-11T19:15:14.110Z,1.40
2023-04-11T19:17:43.819Z,2.23
2023-04-11T19:20:13.641Z,1.63
2023-04-11T19:22:42.868Z,1.20
2023-04-11T19:25:11.887Z,2.00
2023-04-11T19:27:41.773Z,1.93
2023-04-11T19:30:11.089Z,1.50
2023-04-11T19:32:42.957Z,1.40
2023-04-11T19:35:13.666Z,1.50
2023-04-11T19:37:42.582Z,1.33
2023-04-11T19:40:13.341Z,1.57
2023-04-11T19:42:41.864Z,1.30
2023-04-11T19:45:11.499Z,1.63
2023-04-11T19:47:40.522Z,1.70
2023-04-11T19:50:09.905Z,1.23
2023-04-11T19:52:39.718Z,1.50
2023-04-11T19:55:09.245Z,1.47
2023-04-11T19:57:38.370Z,1.00
2023-04-11T20:00:11.794Z,1.57
2023-04-11T20:02:40.281Z,1.47
2023-04-11T20:05:09.602Z,1.47
2023-04-11T20:07:38.940Z,1.40
2023-04-11T20:10:09.676Z,1.50
2023-04-11T20:12:38.063Z,1.50
2023-04-11T20:15:07.109Z,1.27
2023-04-11T20:17:35.414Z,1.60
2023-04-11T20:20:08.489Z,1.37
2023-04-11T20:22:38.496Z,2.00
2023-04-11T20:25:11.530Z,1.40
2023-04-11T20:27:40.235Z,2.10
2023-04-11T20:30:10.635Z,1.40
2023-04-11T20:32:39.093Z,1.43
2023-04-11T20:35:08.674Z,1.40
2023-04-11T20:37:36.985Z,1.00
2023-04-11T20:40:08.072Z,1.90
2023-04-11T20:42:40.063Z,1.13
2023-04-11T20:45:10.098Z,1.10
2023-04-11T20:47:38.622Z,1.33
2023-04-11T20:50:07.480Z,1.20
2023-04-11T20:52:36.874Z,1.50
2023-04-11T20:55:05.437Z,2.03
2023-04-11T20:57:34.047Z,1.50
2023-04-11T21:00:07.541Z,1.60
2023-04-11T21:02:36.072Z,1.70
2023-04-11T21:05:04.683Z,1.77
2023-04-11T21:07:32.984Z,1.77
2023-04-11T21:10:01.778Z,1.50
2023-04-11T21:12:30.078Z,1.97
2023-04-11T21:14:59.347Z,1.80
2023-04-11T21:17:29.073Z,1.73
2023-04-11T21:19:57.448Z,1.70
2023-04-11T21:22:25.882Z,1.80
2023-04-11T21:24:54.304Z,1.80
2023-04-11T21:27:22.549Z,1.77
2023-04-11T21:29:51.030Z,1.50
2023-04-11T21:32:19.438Z,1.70
2023-04-11T21:34:49.255Z,1.83
2023-04-11T21:37:17.729Z,1.47
2023-04-11T21:39:46.095Z,1.60
2023-04-11T21:42:14.414Z,1.40
2023-04-11T21:44:42.704Z,2.30
2023-04-11T21:47:11.270Z,1.70
2023-04-11T21:49:39.531Z,1.30
2023-04-11T21:52:09.669Z,2.00
2023-04-11T21:54:37.981Z,1.80
2023-04-11T21:57:06.318Z,1.60
2023-04-11T21:59:35.996Z,1.40
2023-04-11T22:02:04.567Z,2.20
2023-04-11T22:04:37.235Z,1.47
2023-04-11T22:07:08.998Z,1.80
2023-04-11T22:09:38.197Z,1.73
2023-04-11T22:12:06.604Z,1.67
2023-04-11T22:14:38.183Z,1.80
2023-04-11T22:17:06.458Z,1.60
2023-04-11T22:19:35.197Z,1.57
2023-04-11T22:22:07.972Z,1.60
2023-04-11T22:24:38.365Z,1.60
2023-04-11T22:27:07.242Z,1.43
2023-04-11T22:29:35.569Z,1.70
2023-04-11T22:32:04.501Z,1.83
2023-04-11T22:34:32.936Z,1.70
2023-04-11T22:37:01.404Z,1.90
2023-04-11T22:39:30.184Z,1.60
2023-04-11T22:41:59.930Z,1.60
2023-04-11T22:44:28.243Z,1.60
2023-04-11T22:47:00.602Z,1.60
2023-04-11T22:49:29.173Z,1.60
2023-04-11T22:51:59.283Z,2.20
2023-04-11T22:54:27.979Z,1.90
2023-04-11T22:56:57.463Z,1.70
2023-04-11T22:59:27.857Z,1.60
2023-04-11T23:01:56.757Z,1.60
2023-04-11T23:04:25.268Z,1.90
2023-04-11T23:06:53.811Z,1.40
2023-04-11T23:09:22.948Z,1.40
2023-04-11T23:11:51.292Z,1.77
2023-04-11T23:14:22.360Z,1.40
2023-04-11T23:16:52.299Z,1.57
2023-04-11T23:19:21.065Z,1.50
2023-04-11T23:21:49.716Z,1.60
2023-04-11T23:24:18.057Z,2.07
2023-04-11T23:26:46.460Z,1.40
2023-04-11T23:29:14.932Z,1.50
2023-04-11T23:31:43.228Z,1.90
2023-04-11T23:34:13.353Z,1.70
2023-04-11T23:36:41.777Z,1.30
2023-04-11T23:39:10.076Z,1.40
2023-04-11T23:41:38.407Z,1.40
2023-04-11T23:44:06.937Z,1.50
2023-04-11T23:46:35.412Z,1.20
2023-04-11T23:49:04.779Z,1.50
2023-04-11T23:51:34.471Z,1.20
2023-04-11T23:54:02.915Z,1.40
2023-04-11T23:56:31.620Z,1.83
2023-04-11T23:58:59.899Z,1.20
